createdAt,value
2022-09-05T00:02:24.395Z,3.65
2022-09-05T00:05:05.889Z,4.05
2022-09-05T00:07:59.325Z,3.70
2022-09-05T00:10:46.616Z,3.95
2022-09-05T00:13:33.283Z,3.45
2022-09-05T00:16:19.565Z,3.65
2022-09-05T00:24:20.851Z,3.50
2022-09-05T00:24:34.560Z,3.30
2022-09-05T00:27:58.660Z,3.63
2022-09-05T00:31:51.612Z,3.90
2022-09-05T00:33:37.750Z,3.13
2022-09-05T00:36:25.972Z,3.30
2022-09-05T00:39:01.303Z,3.42
2022-09-05T00:41:34.268Z,3.35
2022-09-05T00:44:05.619Z,3.42
2022-09-05T00:46:38.590Z,3.33
2022-09-05T00:49:18.916Z,4.35
2022-09-05T00:51:56.069Z,3.63
2022-09-05T00:54:46.171Z,3.22
2022-09-05T00:57:43.600Z,3.20
2022-09-05T01:00:17.904Z,3.58
2022-09-05T01:03:09.944Z,3.38
2022-09-05T01:06:13.860Z,3.30
2022-09-05T01:09:07.576Z,3.40
2022-09-05T01:12:02.348Z,3.58
2022-09-05T01:14:48.527Z,3.55
2022-09-05T01:17:31.458Z,3.78
2022-09-05T01:20:19.534Z,3.20
2022-09-05T01:23:08.518Z,3.25
2022-09-05T01:25:55.536Z,3.47
2022-09-05T01:29:15.048Z,3.80
2022-09-05T01:31:29.288Z,3.70
2022-09-05T01:34:14.245Z,3.58
2022-09-05T01:36:58.331Z,4.40
2022-09-05T01:40:15.301Z,4.20
2022-09-05T01:42:38.303Z,4.22
2022-09-05T01:45:17.417Z,4.53
2022-09-05T01:47:54.728Z,5.18
2022-09-05T01:50:40.655Z,5.32
2022-09-05T01:53:28.051Z,7.28
2022-09-05T01:56:14.971Z,6.93
2022-09-05T01:58:51.063Z,5.55
2022-09-05T02:01:32.929Z,5.40
2022-09-05T02:04:24.267Z,6.50
2022-09-05T02:07:19.279Z,5.18
2022-09-05T02:10:23.348Z,4.57
2022-09-05T02:13:02.919Z,4.60
2022-09-05T02:15:57.752Z,4.60
2022-09-05T02:18:48.085Z,5.10
2022-09-05T02:21:27.349Z,4.82
2022-09-05T02:24:06.431Z,4.13
2022-09-05T02:26:41.163Z,4.35
2022-09-05T02:29:29.020Z,5.07
2022-09-05T02:32:04.748Z,4.75
2022-09-05T02:34:46.159Z,5.68
2022-09-05T02:38:15.591Z,5.65
2022-09-05T02:45:04.076Z,5.63
2022-09-05T02:45:09.523Z,5.75
2022-09-05T02:46:19.369Z,5.70
2022-09-05T02:48:55.848Z,5.88
2022-09-05T02:57:41.149Z,6.15
2022-09-05T02:57:46.440Z,6.03
2022-09-05T02:58:05.242Z,6.85
2022-09-05T03:00:23.127Z,6.03
2022-09-05T03:03:22.024Z,6.35
2022-09-05T03:05:58.114Z,6.50
2022-09-05T03:08:55.436Z,6.88
2022-09-05T03:11:58.630Z,7.65
2022-09-05T03:15:20.797Z,8.02
2022-09-05T03:18:28.090Z,8.57
2022-09-05T03:21:39.703Z,6.75
2022-09-05T03:24:56.243Z,9.15
2022-09-05T03:28:06.810Z,7.50
2022-09-05T03:30:52.227Z,7.50
2022-09-05T03:33:43.401Z,7.50
2022-09-05T03:36:54.414Z,8.68
2022-09-05T03:39:56.775Z,7.80
2022-09-05T03:43:14.437Z,8.90
2022-09-05T03:46:01.508Z,9.33
2022-09-05T03:49:10.510Z,8.43
2022-09-05T03:57:15.960Z,9.07
2022-09-05T03:57:27.458Z,8.88
2022-09-05T03:58:56.232Z,8.32
2022-09-05T04:02:46.455Z,9.05
2022-09-05T04:08:20.388Z,8.70
2022-09-05T04:08:23.726Z,9.45
2022-09-05T04:10:27.769Z,9.43
2022-09-05T04:13:02.758Z,7.90
2022-09-05T04:15:42.075Z,8.63
2022-09-05T04:18:33.443Z,8.93
2022-09-05T04:21:08.362Z,8.20
2022-09-05T04:23:49.420Z,8.57
2022-09-05T04:26:36.239Z,7.93
2022-09-05T04:29:16.686Z,8.70
2022-09-05T04:32:03.920Z,10.30
2022-09-05T04:34:56.006Z,8.98
2022-09-05T04:37:49.473Z,8.63
2022-09-05T04:40:39.474Z,8.40
2022-09-05T04:43:14.403Z,8.55
2022-09-05T04:45:46.871Z,8.32
2022-09-05T04:48:22.251Z,7.45
2022-09-05T04:51:11.691Z,7.95
2022-09-05T04:54:05.094Z,8.18
2022-09-05T04:56:38.511Z,7.47
2022-09-05T05:06:05.153Z,8.07
2022-09-05T05:06:16.466Z,7.22
2022-09-05T05:07:59.367Z,9.07
2022-09-05T05:14:02.616Z,8.32
2022-09-05T05:17:57.032Z,8.00
2022-09-05T05:18:09.596Z,7.45
2022-09-05T05:19:21.688Z,8.23
2022-09-05T05:21:55.227Z,7.85
2022-09-05T05:24:29.115Z,8.50
2022-09-05T05:27:07.522Z,8.20
2022-09-05T05:29:45.561Z,7.93
2022-09-05T05:32:24.908Z,8.55
2022-09-05T05:35:15.689Z,8.13
2022-09-05T05:37:49.630Z,8.48
2022-09-05T05:40:25.639Z,9.25
2022-09-05T05:42:55.168Z,9.25
2022-09-05T05:45:29.147Z,9.82
2022-09-05T05:48:05.099Z,9.70
2022-09-05T05:50:49.152Z,9.63
2022-09-05T05:53:43.043Z,9.85
2022-09-05T05:56:36.206Z,11.70
2022-09-05T05:59:30.742Z,11.90
2022-09-05T06:02:30.681Z,13.82
2022-09-05T06:05:35.371Z,15.40
2022-09-05T06:09:52.699Z,14.45
2022-09-05T06:14:56.248Z,29.95
2022-09-05T06:15:12.124Z,27.23
2022-09-05T06:18:29.328Z,44.72
2022-09-05T06:22:10.090Z,91.70
2022-09-05T06:25:16.243Z,85.35
2022-09-05T06:28:18.395Z,80.75
2022-09-05T06:31:29.839Z,72.50
2022-09-05T06:34:05.171Z,58.90
2022-09-05T06:36:49.881Z,45.85
2022-09-05T06:39:32.223Z,42.22
2022-09-05T06:42:28.540Z,38.35
2022-09-05T06:45:28.784Z,47.45
2022-09-05T06:48:06.110Z,77.18
2022-09-05T06:51:07.938Z,86.03
2022-09-05T06:53:59.329Z,91.85
2022-09-05T06:56:47.243Z,85.97
2022-09-05T07:00:02.573Z,83.85
2022-09-05T07:02:58.858Z,76.40
2022-09-05T07:05:40.082Z,93.28
2022-09-05T07:08:36.419Z,79.13
2022-09-05T07:11:16.616Z,72.43
2022-09-05T07:14:01.506Z,70.72
2022-09-05T07:16:41.045Z,67.63
2022-09-05T07:19:27.201Z,67.28
2022-09-05T07:22:33.450Z,66.55
2022-09-05T07:25:08.813Z,56.88
2022-09-05T07:28:26.369Z,51.03
2022-09-05T07:33:04.211Z,47.92
2022-09-05T07:35:41.636Z,49.33
2022-09-05T07:38:17.065Z,48.50
2022-09-05T07:40:54.276Z,48.40
2022-09-05T07:43:28.033Z,47.33
2022-09-05T07:46:11.651Z,45.78
2022-09-05T07:48:49.581Z,44.72
2022-09-05T07:56:46.939Z,42.03
2022-09-05T07:57:02.367Z,42.75
2022-09-05T07:57:31.779Z,43.08
2022-09-05T08:00:08.376Z,40.63
2022-09-05T08:03:01.198Z,37.63
2022-09-05T08:05:40.544Z,34.75
2022-09-05T08:08:17.735Z,36.30
2022-09-05T08:11:25.058Z,32.15
2022-09-05T08:13:57.799Z,38.15
2022-09-05T08:16:43.549Z,31.45
2022-09-05T08:19:43.356Z,31.88
2022-09-05T08:22:21.392Z,32.30
2022-09-05T08:25:00.970Z,31.73
2022-09-05T08:27:37.785Z,32.45
2022-09-05T08:30:27.470Z,30.20
2022-09-05T08:33:10.240Z,30.95
2022-09-05T08:35:45.465Z,29.60
2022-09-05T08:38:17.166Z,27.98
2022-09-05T08:40:59.801Z,28.35
2022-09-05T08:46:38.064Z,28.98
2022-09-05T08:46:43.591Z,27.80
2022-09-05T08:49:52.658Z,41.00
2022-09-05T08:52:31.682Z,29.80
2022-09-05T08:55:12.804Z,28.15
2022-09-05T08:58:12.204Z,29.73
2022-09-05T09:00:55.593Z,21.70
2022-09-05T09:03:33.760Z,18.88
2022-09-05T09:06:21.697Z,19.05
2022-09-05T09:09:18.610Z,19.00
2022-09-05T09:11:55.386Z,18.05
2022-09-05T09:14:59.454Z,19.92
2022-09-05T09:17:43.995Z,19.20
2022-09-05T09:20:37.495Z,18.35
2022-09-05T09:23:32.041Z,17.70
2022-09-05T09:26:13.495Z,17.55
2022-09-05T09:28:51.773Z,18.35
2022-09-05T09:31:44.379Z,17.48
2022-09-05T09:34:36.779Z,14.02
2022-09-05T09:37:51.911Z,10.00
2022-09-05T09:40:52.237Z,9.98
2022-09-05T09:43:39.285Z,8.40
2022-09-05T09:49:23.082Z,4.47
2022-09-05T09:52:22.150Z,3.70
2022-09-05T09:55:41.278Z,4.15
2022-09-05T09:58:36.721Z,4.38
2022-09-05T10:01:21.609Z,4.25
2022-09-05T10:10:36.428Z,4.13
2022-09-05T10:10:45.889Z,4.22
2022-09-05T10:14:56.812Z,7.22
2022-09-05T10:17:55.222Z,7.13
2022-09-05T10:21:15.555Z,7.80
2022-09-05T10:23:58.650Z,8.20
2022-09-05T10:27:20.847Z,8.25
2022-09-05T10:30:12.181Z,9.00
2022-09-05T10:35:04.804Z,6.65
2022-09-05T10:35:50.464Z,6.60
2022-09-05T10:38:26.359Z,6.63
2022-09-05T10:41:03.278Z,7.20
2022-09-05T10:43:54.935Z,8.23
2022-09-05T10:46:50.050Z,6.60
2022-09-05T10:49:27.316Z,7.10
2022-09-05T10:52:18.695Z,7.20
2022-09-05T10:55:13.988Z,7.47
2022-09-05T10:57:57.612Z,6.70
2022-09-05T11:02:23.723Z,5.83
2022-09-05T11:03:46.866Z,5.95
2022-09-05T11:06:20.933Z,4.88
2022-09-05T11:09:06.922Z,2.80
2022-09-05T11:11:46.155Z,2.97
2022-09-05T11:14:35.298Z,2.15
2022-09-05T11:17:16.123Z,2.83
2022-09-05T11:19:49.554Z,2.45
2022-09-05T11:22:23.683Z,2.85
2022-09-05T11:24:59.132Z,2.83
2022-09-05T11:27:34.087Z,1.80
2022-09-05T11:30:07.113Z,2.45
2022-09-05T11:39:42.475Z,2.10
2022-09-05T11:39:58.054Z,1.88
2022-09-05T11:40:07.051Z,2.10
2022-09-05T11:42:48.943Z,1.70
2022-09-05T11:45:39.453Z,2.65
2022-09-05T11:48:47.906Z,1.92
2022-09-05T11:51:59.566Z,2.20
2022-09-05T11:55:08.133Z,2.13
2022-09-05T11:58:44.623Z,2.08
2022-09-05T12:01:43.469Z,2.70
2022-09-05T12:04:29.593Z,3.15
2022-09-05T12:07:32.900Z,2.50
2022-09-05T12:10:46.621Z,2.30
2022-09-05T12:13:32.556Z,2.70
2022-09-05T12:16:10.375Z,2.78
2022-09-05T12:18:48.673Z,2.72
2022-09-05T12:21:29.832Z,2.47
2022-09-05T12:27:41.240Z,3.45
2022-09-05T12:30:00.698Z,2.97
2022-09-05T12:33:47.916Z,2.92
2022-09-05T12:36:10.009Z,2.92
2022-09-05T12:40:04.908Z,3.65
2022-09-05T12:41:41.475Z,4.07
2022-09-05T12:41:44.996Z,2.75
2022-09-05T12:44:41.235Z,4.00
2022-09-05T12:47:18.518Z,3.90
2022-09-05T12:50:03.436Z,3.83
2022-09-05T12:52:46.755Z,3.97
2022-09-05T12:55:27.333Z,3.67
2022-09-05T13:03:09.384Z,2.30
2022-09-05T13:03:09.503Z,3.08
2022-09-05T13:04:15.839Z,2.95
2022-09-05T13:06:45.452Z,2.35
2022-09-05T13:09:22.898Z,2.58
2022-09-05T13:14:54.911Z,5.63
2022-09-05T13:15:21.507Z,3.05
2022-09-05T13:18:00.395Z,3.00
2022-09-05T13:20:36.920Z,3.03
2022-09-05T13:23:20.309Z,4.95
2022-09-05T13:25:58.626Z,5.57
2022-09-05T13:28:35.462Z,5.45
2022-09-05T13:37:58.606Z,8.30
2022-09-05T13:38:10.750Z,10.48
2022-09-05T13:38:17.823Z,8.98
2022-09-05T13:39:50.572Z,7.85
2022-09-05T13:42:23.068Z,8.43
2022-09-05T13:44:56.585Z,7.55
2022-09-05T13:47:56.381Z,6.78
2022-09-05T13:50:28.780Z,6.15
2022-09-05T13:53:04.957Z,5.97
2022-09-05T13:55:42.908Z,5.22
2022-09-05T13:58:17.732Z,5.28
2022-09-05T14:01:19.036Z,5.13
2022-09-05T14:07:46.767Z,7.90
2022-09-05T14:10:55.253Z,8.80
2022-09-05T14:13:28.329Z,8.73
2022-09-05T14:16:00.804Z,9.40
2022-09-05T14:18:55.591Z,9.00
2022-09-05T14:21:27.827Z,8.35
2022-09-05T14:24:03.405Z,9.57
2022-09-05T14:26:42.419Z,9.32
2022-09-05T14:29:18.692Z,9.63
2022-09-05T14:37:34.751Z,10.85
2022-09-05T14:37:44.461Z,9.45
2022-09-05T14:38:09.685Z,9.90
2022-09-05T14:41:29.170Z,9.50
2022-09-05T14:44:37.862Z,9.88
2022-09-05T14:47:42.531Z,8.32
2022-09-05T14:50:27.693Z,8.02
2022-09-05T14:56:23.175Z,7.25
2022-09-05T15:02:56.710Z,7.43
2022-09-05T15:02:57.790Z,7.88
2022-09-05T15:04:45.386Z,8.15
2022-09-05T15:07:21.931Z,7.85
2022-09-05T15:12:15.727Z,8.15
2022-09-05T15:13:03.456Z,8.10
2022-09-05T15:18:03.051Z,10.68
2022-09-05T15:20:37.347Z,10.23
2022-09-05T15:23:11.324Z,11.55
2022-09-05T15:25:49.711Z,10.90
2022-09-05T15:28:31.717Z,8.15
2022-09-05T15:31:05.089Z,6.95
2022-09-05T15:33:34.298Z,8.40
2022-09-05T15:36:06.870Z,6.63
2022-09-05T15:38:54.453Z,6.40
2022-09-05T15:41:26.634Z,6.93
2022-09-05T15:44:00.173Z,5.90
2022-09-05T15:46:49.462Z,6.43
2022-09-05T15:49:33.265Z,6.03
2022-09-05T15:52:07.531Z,6.10
2022-09-05T15:54:40.484Z,5.75
2022-09-05T15:57:17.653Z,5.22
2022-09-05T15:59:53.924Z,5.82
2022-09-05T16:02:26.387Z,6.57
2022-09-05T16:10:35.642Z,6.73
2022-09-05T16:10:42.220Z,7.05
2022-09-05T16:11:37.042Z,7.32
2022-09-05T16:13:51.997Z,6.78
2022-09-05T16:23:14.891Z,8.05
2022-09-05T16:23:16.571Z,7.85
2022-09-05T16:23:24.772Z,9.77
2022-09-05T16:25:17.579Z,9.63
2022-09-05T16:27:53.652Z,10.02
2022-09-05T16:30:25.219Z,11.52
2022-09-05T16:33:01.737Z,12.40
2022-09-05T16:35:35.182Z,12.23
2022-09-05T16:40:43.764Z,11.80
2022-09-05T16:43:19.531Z,11.55
2022-09-05T16:45:56.435Z,11.85
2022-09-05T16:48:40.736Z,11.30
2022-09-05T16:51:35.065Z,11.70
2022-09-05T16:54:12.447Z,12.38
2022-09-05T16:56:46.606Z,12.55
2022-09-05T16:59:19.307Z,11.93
2022-09-05T17:02:06.312Z,12.60
2022-09-05T17:05:03.238Z,10.45
2022-09-05T17:07:53.696Z,11.73
2022-09-05T17:10:27.153Z,11.15
2022-09-05T17:12:57.919Z,10.77
2022-09-05T17:15:30.759Z,11.30
2022-09-05T17:18:22.436Z,9.73
2022-09-05T17:20:58.580Z,9.93
2022-09-05T17:29:21.169Z,11.15
2022-09-05T17:29:30.257Z,13.05
2022-09-05T17:31:20.883Z,13.65
2022-09-05T17:32:54.563Z,12.95
2022-09-05T17:35:43.624Z,11.38
2022-09-05T17:39:00.802Z,10.25
2022-09-05T17:42:02.280Z,8.73
2022-09-05T17:44:42.915Z,6.85
2022-09-05T17:47:35.514Z,6.18
2022-09-05T17:50:16.823Z,8.43
2022-09-05T17:53:26.420Z,4.75
2022-09-05T17:56:14.887Z,5.18
2022-09-05T17:59:03.883Z,4.82
2022-09-05T18:01:35.115Z,5.32
2022-09-05T18:04:17.082Z,3.85
2022-09-05T18:06:59.235Z,4.03
2022-09-05T18:10:14.579Z,3.50
2022-09-05T18:13:31.628Z,3.42
2022-09-05T18:16:11.733Z,3.45
2022-09-05T18:21:50.032Z,2.45
2022-09-05T18:24:32.774Z,2.40
2022-09-05T18:30:01.761Z,1.85
2022-09-05T18:32:45.549Z,1.90
2022-09-05T18:35:36.899Z,2.03
2022-09-05T18:38:50.459Z,1.73
2022-09-05T18:41:19.299Z,2.00
2022-09-05T18:44:13.523Z,1.90
2022-09-05T18:46:52.768Z,2.40
2022-09-05T18:50:25.608Z,1.88
2022-09-05T18:52:23.390Z,1.73
2022-09-05T18:55:46.357Z,1.85
2022-09-05T18:57:52.479Z,1.30
2022-09-05T19:00:44.572Z,1.67
2022-09-05T19:03:19.605Z,1.52
2022-09-05T19:06:34.295Z,1.67
2022-09-05T19:08:56.339Z,1.60
2022-09-05T19:11:31.871Z,15.73
2022-09-05T19:14:26.722Z,2.30
2022-09-05T19:17:09.942Z,1.70
2022-09-05T19:20:31.877Z,2.42
2022-09-05T19:23:10.595Z,1.65
2022-09-05T19:25:45.293Z,1.90
2022-09-05T19:36:46.080Z,1.70
2022-09-05T19:36:59.028Z,2.00
2022-09-05T19:43:28.361Z,1.80
2022-09-05T19:47:39.300Z,1.40
2022-09-05T19:47:51.105Z,1.35
2022-09-05T19:48:27.478Z,1.60
2022-09-05T19:50:58.269Z,1.52
2022-09-05T19:53:27.428Z,1.42
2022-09-05T19:55:56.590Z,1.30
2022-09-05T19:58:25.771Z,1.63
2022-09-05T20:01:05.152Z,1.40
2022-09-05T20:03:39.454Z,1.00
2022-09-05T20:06:30.032Z,1.20
2022-09-05T20:09:14.929Z,1.25
2022-09-05T20:11:49.637Z,6.80
2022-09-05T20:14:22.016Z,11.57
2022-09-05T20:16:55.969Z,2.97
2022-09-05T20:19:28.744Z,1.33
2022-09-05T20:22:46.667Z,2.95
2022-09-05T20:24:55.915Z,1.10
2022-09-05T20:27:28.288Z,1.30
2022-09-05T20:30:00.461Z,1.20
2022-09-05T20:32:39.479Z,1.58
2022-09-05T20:39:01.011Z,3.15
2022-09-05T20:43:11.526Z,1.10
2022-09-05T20:43:21.750Z,1.10
2022-09-05T20:44:19.253Z,1.35
2022-09-05T20:50:45.663Z,1.40
2022-09-05T20:54:19.067Z,1.20
2022-09-05T20:54:27.128Z,1.80
2022-09-05T20:55:41.346Z,1.33
2022-09-05T20:58:14.211Z,1.25
2022-09-05T21:01:19.758Z,1.35
2022-09-05T21:03:40.963Z,0.98
2022-09-05T21:06:23.635Z,1.33
2022-09-05T21:08:56.111Z,1.00
2022-09-05T21:11:33.785Z,1.30
2022-09-05T21:14:05.523Z,1.30
2022-09-05T21:16:38.571Z,1.50
2022-09-05T21:19:07.854Z,1.58
2022-09-05T21:21:38.045Z,1.05
2022-09-05T21:24:17.360Z,1.20
2022-09-05T21:26:49.424Z,0.90
2022-09-05T21:29:32.566Z,1.20
2022-09-05T21:34:45.794Z,1.50
2022-09-05T21:37:17.932Z,1.17
2022-09-05T21:39:59.793Z,1.23
2022-09-05T21:47:17.222Z,1.40
2022-09-05T21:47:49.091Z,1.30
2022-09-05T21:48:13.290Z,1.48
2022-09-05T21:50:46.504Z,1.20
2022-09-05T21:55:59.495Z,1.30
2022-09-05T21:59:19.660Z,1.20
2022-09-05T21:59:29.834Z,1.70
2022-09-05T22:01:58.866Z,1.30
2022-09-05T22:04:28.785Z,1.40
2022-09-05T22:07:02.318Z,1.17
2022-09-05T22:09:32.835Z,1.70
2022-09-05T22:12:06.133Z,1.30
2022-09-05T22:14:47.043Z,1.50
2022-09-05T22:17:17.392Z,1.60
2022-09-05T22:19:46.899Z,1.70
2022-09-05T22:22:17.830Z,1.77
2022-09-05T22:24:53.641Z,1.63
2022-09-05T22:27:24.151Z,1.30
2022-09-05T22:29:53.312Z,1.60
2022-09-05T22:32:34.515Z,1.73
2022-09-05T22:35:27.976Z,1.40
2022-09-05T22:38:01.250Z,2.92
2022-09-05T22:40:32.332Z,1.33
2022-09-05T22:43:02.844Z,1.70
2022-09-05T22:45:35.912Z,1.40
2022-09-05T22:48:08.386Z,1.60
2022-09-05T22:50:38.744Z,1.40
2022-09-05T22:53:09.842Z,1.70
2022-09-05T22:55:42.573Z,1.40
2022-09-05T22:58:13.777Z,1.40
2022-09-05T23:00:44.700Z,1.33
2022-09-05T23:03:13.759Z,1.38
2022-09-05T23:05:42.803Z,1.50
2022-09-05T23:08:11.813Z,1.50
2022-09-05T23:10:42.025Z,1.50
2022-09-05T23:13:12.180Z,1.45
2022-09-05T23:15:41.205Z,1.40
2022-09-05T23:18:10.021Z,1.40
2022-09-05T23:20:38.848Z,1.25
2022-09-05T23:23:08.529Z,1.60
2022-09-05T23:25:37.560Z,1.42
2022-09-05T23:28:09.280Z,1.52
2022-09-05T23:30:38.924Z,1.60
2022-09-05T23:33:09.553Z,1.65
2022-09-05T23:35:38.803Z,2.15
2022-09-05T23:38:10.567Z,1.50
2022-09-05T23:40:39.870Z,1.60
2022-09-05T23:43:10.198Z,1.67
2022-09-05T23:45:39.155Z,1.48
2022-09-05T23:48:08.180Z,1.65
2022-09-05T23:50:37.075Z,1.73
2022-09-05T23:53:05.969Z,1.70
2022-09-05T23:55:34.899Z,1.55
2022-09-05T23:58:03.790Z,1.48
